sensor_id;sensor_type;location;lat;lon;timestamp;P1;durP1;ratioP1;P2;durP2;ratioP2
53299;SDS011;39187;48.476;8.310;2023-04-03T00:01:11;24.40;;;9.27;;
53299;SDS011;39187;48.476;8.310;2023-04-03T00:03:36;29.37;;;8.70;;
53299;SDS011;39187;48.476;8.310;2023-04-03T00:06:03;12.43;;;8.20;;
53299;SDS011;39187;48.476;8.310;2023-04-03T00:08:30;88.70;;;9.17;;
53299;SDS011;39187;48.476;8.310;2023-04-03T00:10:57;81.97;;;11.63;;
53299;SDS011;39187;48.476;8.310;2023-04-03T00:13:24;31.13;;;8.40;;
53299;SDS011;39187;48.476;8.310;2023-04-03T00:15:50;12.10;;;6.97;;
53299;SDS011;39187;48.476;8.310;2023-04-03T00:18:16;21.57;;;8.80;;
53299;SDS011;39187;48.476;8.310;2023-04-03T00:20:42;53.80;;;10.47;;
53299;SDS011;39187;48.476;8.310;2023-04-03T00:23:08;59.13;;;10.23;;
53299;SDS011;39187;48.476;8.310;2023-04-03T00:25:34;27.53;;;9.70;;
53299;SDS011;39187;48.476;8.310;2023-04-03T00:27:59;94.87;;;13.17;;
53299;SDS011;39187;48.476;8.310;2023-04-03T00:30:25;31.87;;;8.10;;
53299;SDS011;39187;48.476;8.310;2023-04-03T00:32:51;12.90;;;9.03;;
53299;SDS011;39187;48.476;8.310;2023-04-03T00:35:18;61.80;;;10.83;;
53299;SDS011;39187;48.476;8.310;2023-04-03T00:37:45;43.13;;;9.20;;
53299;SDS011;39187;48.476;8.310;2023-04-03T00:40:11;146.53;;;15.03;;
53299;SDS011;39187;48.476;8.310;2023-04-03T00:42:40;88.57;;;11.93;;
53299;SDS011;39187;48.476;8.310;2023-04-03T00:47:57;28.57;;;9.60;;
53299;SDS011;39187;48.476;8.310;2023-04-03T00:50:25;31.97;;;9.47;;
53299;SDS011;39187;48.476;8.310;2023-04-03T00:52:52;24.50;;;9.80;;
53299;SDS011;39187;48.476;8.310;2023-04-03T00:55:18;35.53;;;9.93;;
53299;SDS011;39187;48.476;8.310;2023-04-03T00:57:45;36.80;;;10.77;;
53299;SDS011;39187;48.476;8.310;2023-04-03T01:00:12;36.37;;;8.90;;
53299;SDS011;39187;48.476;8.310;2023-04-03T01:02:40;27.27;;;10.60;;
53299;SDS011;39187;48.476;8.310;2023-04-03T01:05:06;29.17;;;10.23;;
53299;SDS011;39187;48.476;8.310;2023-04-03T01:07:32;118.17;;;14.10;;
53299;SDS011;39187;48.476;8.310;2023-04-03T01:10:00;16.90;;;10.20;;
53299;SDS011;39187;48.476;8.310;2023-04-03T01:12:30;16.93;;;9.40;;
53299;SDS011;39187;48.476;8.310;2023-04-03T01:15:11;33.57;;;11.37;;
53299;SDS011;39187;48.476;8.310;2023-04-03T01:17:52;28.73;;;9.70;;
53299;SDS011;39187;48.476;8.310;2023-04-03T01:25:34;33.27;;;11.33;;
53299;SDS011;39187;48.476;8.310;2023-04-03T01:28:03;15.20;;;10.33;;
53299;SDS011;39187;48.476;8.310;2023-04-03T01:30:31;11.50;;;10.07;;
53299;SDS011;39187;48.476;8.310;2023-04-03T01:33:00;51.27;;;10.60;;
53299;SDS011;39187;48.476;8.310;2023-04-03T01:35:26;12.53;;;10.70;;
53299;SDS011;39187;48.476;8.310;2023-04-03T01:37:52;16.60;;;9.17;;
53299;SDS011;39187;48.476;8.310;2023-04-03T01:40:17;10.40;;;8.90;;
53299;SDS011;39187;48.476;8.310;2023-04-03T01:42:43;35.27;;;9.43;;
53299;SDS011;39187;48.476;8.310;2023-04-03T01:45:08;10.60;;;9.30;;
53299;SDS011;39187;48.476;8.310;2023-04-03T01:47:34;12.10;;;9.43;;
53299;SDS011;39187;48.476;8.310;2023-04-03T01:50:00;37.43;;;11.10;;
53299;SDS011;39187;48.476;8.310;2023-04-03T01:52:25;13.77;;;9.10;;
53299;SDS011;39187;48.476;8.310;2023-04-03T01:54:51;10.13;;;9.37;;
53299;SDS011;39187;48.476;8.310;2023-04-03T01:57:17;12.57;;;10.33;;
53299;SDS011;39187;48.476;8.310;2023-04-03T01:59:43;15.17;;;9.33;;
53299;SDS011;39187;48.476;8.310;2023-04-03T02:02:08;14.40;;;10.10;;
53299;SDS011;39187;48.476;8.310;2023-04-03T02:04:34;13.63;;;8.67;;
53299;SDS011;39187;48.476;8.310;2023-04-03T02:06:59;12.80;;;9.73;;
53299;SDS011;39187;48.476;8.310;2023-04-03T02:09:25;11.97;;;8.97;;
53299;SDS011;39187;48.476;8.310;2023-04-03T02:11:52;10.40;;;9.40;;
53299;SDS011;39187;48.476;8.310;2023-04-03T02:14:18;12.50;;;8.90;;
53299;SDS011;39187;48.476;8.310;2023-04-03T02:16:43;9.40;;;8.43;;
53299;SDS011;39187;48.476;8.310;2023-04-03T02:19:09;9.47;;;8.70;;
53299;SDS011;39187;48.476;8.310;2023-04-03T02:21:35;18.83;;;10.07;;
53299;SDS011;39187;48.476;8.310;2023-04-03T02:24:00;10.07;;;9.30;;
53299;SDS011;39187;48.476;8.310;2023-04-03T02:26:26;10.23;;;9.30;;
53299;SDS011;39187;48.476;8.310;2023-04-03T02:28:52;16.80;;;9.30;;
53299;SDS011;39187;48.476;8.310;2023-04-03T02:31:17;10.10;;;9.23;;
53299;SDS011;39187;48.476;8.310;2023-04-03T02:33:43;10.60;;;9.53;;
53299;SDS011;39187;48.476;8.310;2023-04-03T02:36:08;13.97;;;8.83;;
53299;SDS011;39187;48.476;8.310;2023-04-03T02:38:34;27.33;;;10.67;;
53299;SDS011;39187;48.476;8.310;2023-04-03T02:41:01;12.70;;;11.17;;
53299;SDS011;39187;48.476;8.310;2023-04-03T02:43:31;13.23;;;10.60;;
53299;SDS011;39187;48.476;8.310;2023-04-03T02:45:57;20.00;;;10.57;;
53299;SDS011;39187;48.476;8.310;2023-04-03T02:48:23;11.87;;;9.07;;
53299;SDS011;39187;48.476;8.310;2023-04-03T02:50:49;15.00;;;10.00;;
53299;SDS011;39187;48.476;8.310;2023-04-03T02:53:15;10.77;;;9.20;;
53299;SDS011;39187;48.476;8.310;2023-04-03T02:55:40;15.80;;;9.90;;
53299;SDS011;39187;48.476;8.310;2023-04-03T02:58:06;12.30;;;9.63;;
53299;SDS011;39187;48.476;8.310;2023-04-03T03:00:32;10.33;;;9.47;;
53299;SDS011;39187;48.476;8.310;2023-04-03T03:02:58;9.87;;;8.63;;
53299;SDS011;39187;48.476;8.310;2023-04-03T03:05:23;50.03;;;10.00;;
53299;SDS011;39187;48.476;8.310;2023-04-03T03:07:49;14.57;;;9.80;;
53299;SDS011;39187;48.476;8.310;2023-04-03T03:10:14;12.77;;;10.00;;
53299;SDS011;39187;48.476;8.310;2023-04-03T03:12:40;15.40;;;10.03;;
53299;SDS011;39187;48.476;8.310;2023-04-03T03:15:06;10.80;;;9.33;;
53299;SDS011;39187;48.476;8.310;2023-04-03T03:17:32;15.20;;;11.47;;
53299;SDS011;39187;48.476;8.310;2023-04-03T03:19:58;10.37;;;9.37;;
53299;SDS011;39187;48.476;8.310;2023-04-03T03:22:23;12.07;;;10.63;;
53299;SDS011;39187;48.476;8.310;2023-04-03T03:24:49;10.97;;;9.97;;
53299;SDS011;39187;48.476;8.310;2023-04-03T03:27:14;11.70;;;10.50;;
53299;SDS011;39187;48.476;8.310;2023-04-03T03:29:41;10.53;;;8.70;;
53299;SDS011;39187;48.476;8.310;2023-04-03T03:32:07;10.40;;;9.40;;
53299;SDS011;39187;48.476;8.310;2023-04-03T03:34:33;10.10;;;9.10;;
53299;SDS011;39187;48.476;8.310;2023-04-03T03:36:58;10.40;;;9.40;;
53299;SDS011;39187;48.476;8.310;2023-04-03T03:39:24;14.23;;;10.30;;
53299;SDS011;39187;48.476;8.310;2023-04-03T03:41:50;9.90;;;9.10;;
53299;SDS011;39187;48.476;8.310;2023-04-03T03:44:18;9.37;;;8.50;;
53299;SDS011;39187;48.476;8.310;2023-04-03T03:46:44;11.30;;;9.83;;
53299;SDS011;39187;48.476;8.310;2023-04-03T03:49:10;9.63;;;8.73;;
53299;SDS011;39187;48.476;8.310;2023-04-03T03:51:38;9.30;;;8.30;;
53299;SDS011;39187;48.476;8.310;2023-04-03T03:54:04;9.33;;;8.53;;
53299;SDS011;39187;48.476;8.310;2023-04-03T03:56:30;9.70;;;9.00;;
53299;SDS011;39187;48.476;8.310;2023-04-03T03:58:56;10.73;;;8.70;;
53299;SDS011;39187;48.476;8.310;2023-04-03T04:01:22;8.73;;;7.50;;
53299;SDS011;39187;48.476;8.310;2023-04-03T04:03:48;7.03;;;6.43;;
53299;SDS011;39187;48.476;8.310;2023-04-03T04:06:14;11.20;;;8.60;;
53299;SDS011;39187;48.476;8.310;2023-04-03T04:08:40;9.80;;;7.90;;
53299;SDS011;39187;48.476;8.310;2023-04-03T04:11:06;8.57;;;7.87;;
53299;SDS011;39187;48.476;8.310;2023-04-03T04:13:33;8.60;;;7.90;;
53299;SDS011;39187;48.476;8.310;2023-04-03T04:15:58;9.60;;;8.70;;
53299;SDS011;39187;48.476;8.310;2023-04-03T04:18:24;9.67;;;8.83;;
53299;SDS011;39187;48.476;8.310;2023-04-03T04:20:50;8.03;;;7.43;;
53299;SDS011;39187;48.476;8.310;2023-04-03T04:23:16;8.33;;;7.53;;
53299;SDS011;39187;48.476;8.310;2023-04-03T04:25:46;8.90;;;8.23;;
53299;SDS011;39187;48.476;8.310;2023-04-03T04:28:12;9.60;;;8.70;;
53299;SDS011;39187;48.476;8.310;2023-04-03T04:30:38;8.57;;;7.87;;
53299;SDS011;39187;48.476;8.310;2023-04-03T04:33:04;8.70;;;8.10;;
53299;SDS011;39187;48.476;8.310;2023-04-03T04:35:30;8.13;;;7.57;;
53299;SDS011;39187;48.476;8.310;2023-04-03T04:37:56;9.37;;;8.53;;
53299;SDS011;39187;48.476;8.310;2023-04-03T04:40:21;9.07;;;8.23;;
53299;SDS011;39187;48.476;8.310;2023-04-03T04:42:47;8.70;;;8.10;;
53299;SDS011;39187;48.476;8.310;2023-04-03T04:45:13;9.03;;;8.30;;
53299;SDS011;39187;48.476;8.310;2023-04-03T04:47:40;12.47;;;9.43;;
53299;SDS011;39187;48.476;8.310;2023-04-03T04:50:06;9.80;;;8.80;;
53299;SDS011;39187;48.476;8.310;2023-04-03T04:52:32;7.60;;;7.20;;
53299;SDS011;39187;48.476;8.310;2023-04-03T04:54:57;10.53;;;8.53;;
53299;SDS011;39187;48.476;8.310;2023-04-03T04:57:23;9.70;;;8.90;;
53299;SDS011;39187;48.476;8.310;2023-04-03T04:59:48;8.07;;;7.40;;
53299;SDS011;39187;48.476;8.310;2023-04-03T05:02:14;9.60;;;8.80;;
53299;SDS011;39187;48.476;8.310;2023-04-03T05:04:40;9.00;;;8.30;;
53299;SDS011;39187;48.476;8.310;2023-04-03T05:07:05;8.80;;;8.10;;
53299;SDS011;39187;48.476;8.310;2023-04-03T05:09:31;9.30;;;8.27;;
53299;SDS011;39187;48.476;8.310;2023-04-03T05:11:56;9.70;;;8.77;;
53299;SDS011;39187;48.476;8.310;2023-04-03T05:14:22;9.00;;;8.30;;
53299;SDS011;39187;48.476;8.310;2023-04-03T05:16:48;8.30;;;7.70;;
53299;SDS011;39187;48.476;8.310;2023-04-03T05:19:17;9.47;;;8.50;;
53299;SDS011;39187;48.476;8.310;2023-04-03T05:21:44;8.63;;;7.77;;
53299;SDS011;39187;48.476;8.310;2023-04-03T05:24:09;8.33;;;7.73;;
53299;SDS011;39187;48.476;8.310;2023-04-03T05:26:35;15.10;;;8.53;;
53299;SDS011;39187;48.476;8.310;2023-04-03T05:29:00;8.40;;;7.70;;
53299;SDS011;39187;48.476;8.310;2023-04-03T05:31:26;7.53;;;7.03;;
53299;SDS011;39187;48.476;8.310;2023-04-03T05:33:54;9.40;;;7.90;;
53299;SDS011;39187;48.476;8.310;2023-04-03T05:36:20;8.07;;;7.30;;
53299;SDS011;39187;48.476;8.310;2023-04-03T05:38:46;8.40;;;7.70;;
53299;SDS011;39187;48.476;8.310;2023-04-03T05:41:12;8.33;;;7.77;;
53299;SDS011;39187;48.476;8.310;2023-04-03T05:43:39;8.87;;;8.27;;
53299;SDS011;39187;48.476;8.310;2023-04-03T05:46:11;7.63;;;7.10;;
53299;SDS011;39187;48.476;8.310;2023-04-03T05:48:37;9.10;;;8.33;;
53299;SDS011;39187;48.476;8.310;2023-04-03T05:51:04;10.57;;;8.47;;
53299;SDS011;39187;48.476;8.310;2023-04-03T05:53:31;8.17;;;7.47;;
53299;SDS011;39187;48.476;8.310;2023-04-03T05:56:00;8.67;;;7.87;;
53299;SDS011;39187;48.476;8.310;2023-04-03T05:58:26;7.37;;;6.73;;
53299;SDS011;39187;48.476;8.310;2023-04-03T06:00:51;7.97;;;7.37;;
53299;SDS011;39187;48.476;8.310;2023-04-03T06:03:17;8.97;;;8.30;;
53299;SDS011;39187;48.476;8.310;2023-04-03T06:05:43;7.77;;;7.27;;
53299;SDS011;39187;48.476;8.310;2023-04-03T06:08:08;8.10;;;7.57;;
53299;SDS011;39187;48.476;8.310;2023-04-03T06:10:34;8.10;;;7.33;;
53299;SDS011;39187;48.476;8.310;2023-04-03T06:13:01;7.63;;;6.60;;
53299;SDS011;39187;48.476;8.310;2023-04-03T06:15:27;6.73;;;6.23;;
53299;SDS011;39187;48.476;8.310;2023-04-03T06:17:53;7.77;;;7.27;;
53299;SDS011;39187;48.476;8.310;2023-04-03T06:20:18;6.87;;;6.43;;
53299;SDS011;39187;48.476;8.310;2023-04-03T06:22:44;6.60;;;6.30;;
53299;SDS011;39187;48.476;8.310;2023-04-03T06:25:11;7.50;;;7.00;;
53299;SDS011;39187;48.476;8.310;2023-04-03T06:27:37;6.03;;;5.73;;
53299;SDS011;39187;48.476;8.310;2023-04-03T06:30:03;7.03;;;6.40;;
53299;SDS011;39187;48.476;8.310;2023-04-03T06:32:30;6.47;;;5.87;;
53299;SDS011;39187;48.476;8.310;2023-04-03T06:34:56;6.67;;;6.27;;
53299;SDS011;39187;48.476;8.310;2023-04-03T06:37:22;6.63;;;6.23;;
53299;SDS011;39187;48.476;8.310;2023-04-03T06:39:51;5.70;;;5.40;;
53299;SDS011;39187;48.476;8.310;2023-04-03T06:42:16;6.80;;;6.50;;
53299;SDS011;39187;48.476;8.310;2023-04-03T06:44:42;9.70;;;7.03;;
53299;SDS011;39187;48.476;8.310;2023-04-03T06:47:09;7.27;;;6.77;;
53299;SDS011;39187;48.476;8.310;2023-04-03T06:49:37;6.40;;;6.00;;
53299;SDS011;39187;48.476;8.310;2023-04-03T06:52:03;6.13;;;5.63;;
53299;SDS011;39187;48.476;8.310;2023-04-03T06:54:30;6.27;;;5.90;;
53299;SDS011;39187;48.476;8.310;2023-04-03T06:56:56;6.00;;;5.70;;
53299;SDS011;39187;48.476;8.310;2023-04-03T06:59:21;5.20;;;4.90;;
53299;SDS011;39187;48.476;8.310;2023-04-03T07:01:47;4.90;;;4.50;;
53299;SDS011;39187;48.476;8.310;2023-04-03T07:04:13;4.97;;;4.67;;
53299;SDS011;39187;48.476;8.310;2023-04-03T07:06:40;5.60;;;5.10;;
53299;SDS011;39187;48.476;8.310;2023-04-03T07:09:07;5.67;;;5.37;;
53299;SDS011;39187;48.476;8.310;2023-04-03T07:11:32;5.70;;;5.30;;
53299;SDS011;39187;48.476;8.310;2023-04-03T07:13:58;5.90;;;5.50;;
53299;SDS011;39187;48.476;8.310;2023-04-03T07:16:23;5.00;;;4.70;;
53299;SDS011;39187;48.476;8.310;2023-04-03T07:18:49;5.80;;;5.30;;
53299;SDS011;39187;48.476;8.310;2023-04-03T07:21:15;4.60;;;4.30;;
53299;SDS011;39187;48.476;8.310;2023-04-03T07:23:40;4.03;;;3.83;;
53299;SDS011;39187;48.476;8.310;2023-04-03T07:26:06;5.47;;;5.17;;
53299;SDS011;39187;48.476;8.310;2023-04-03T07:28:33;4.50;;;4.30;;
53299;SDS011;39187;48.476;8.310;2023-04-03T07:31:08;3.67;;;3.57;;
53299;SDS011;39187;48.476;8.310;2023-04-03T07:33:38;3.83;;;3.40;;
53299;SDS011;39187;48.476;8.310;2023-04-03T07:36:05;3.37;;;3.17;;
53299;SDS011;39187;48.476;8.310;2023-04-03T07:38:32;5.23;;;5.03;;
53299;SDS011;39187;48.476;8.310;2023-04-03T07:40:58;4.80;;;4.47;;
53299;SDS011;39187;48.476;8.310;2023-04-03T07:43:24;2.73;;;2.53;;
53299;SDS011;39187;48.476;8.310;2023-04-03T07:45:50;4.33;;;3.30;;
53299;SDS011;39187;48.476;8.310;2023-04-03T07:48:17;4.20;;;3.77;;
53299;SDS011;39187;48.476;8.310;2023-04-03T07:50:43;2.70;;;2.60;;
53299;SDS011;39187;48.476;8.310;2023-04-03T07:53:09;3.43;;;3.23;;
53299;SDS011;39187;48.476;8.310;2023-04-03T07:55:35;3.60;;;3.40;;
53299;SDS011;39187;48.476;8.310;2023-04-03T07:58:08;3.87;;;3.67;;
53299;SDS011;39187;48.476;8.310;2023-04-03T08:00:34;3.33;;;3.23;;
53299;SDS011;39187;48.476;8.310;2023-04-03T08:03:00;3.97;;;3.77;;
53299;SDS011;39187;48.476;8.310;2023-04-03T08:05:26;3.43;;;3.17;;
53299;SDS011;39187;48.476;8.310;2023-04-03T08:07:52;3.80;;;3.60;;
53299;SDS011;39187;48.476;8.310;2023-04-03T08:10:17;3.63;;;3.53;;
53299;SDS011;39187;48.476;8.310;2023-04-03T08:12:45;4.37;;;4.17;;
53299;SDS011;39187;48.476;8.310;2023-04-03T08:15:11;3.60;;;3.50;;
53299;SDS011;39187;48.476;8.310;2023-04-03T08:17:37;4.53;;;4.33;;
53299;SDS011;39187;48.476;8.310;2023-04-03T08:20:04;3.60;;;3.40;;
53299;SDS011;39187;48.476;8.310;2023-04-03T08:22:31;5.23;;;5.00;;
53299;SDS011;39187;48.476;8.310;2023-04-03T08:24:57;4.50;;;4.30;;
53299;SDS011;39187;48.476;8.310;2023-04-03T08:27:23;4.70;;;4.30;;
53299;SDS011;39187;48.476;8.310;2023-04-03T08:29:48;4.47;;;4.27;;
53299;SDS011;39187;48.476;8.310;2023-04-03T08:32:14;4.33;;;4.07;;
53299;SDS011;39187;48.476;8.310;2023-04-03T08:34:40;3.80;;;3.70;;
53299;SDS011;39187;48.476;8.310;2023-04-03T08:37:06;4.03;;;3.80;;
53299;SDS011;39187;48.476;8.310;2023-04-03T08:39:32;4.10;;;4.00;;
53299;SDS011;39187;48.476;8.310;2023-04-03T08:41:57;3.23;;;3.03;;
53299;SDS011;39187;48.476;8.310;2023-04-03T08:47:40;3.20;;;3.03;;
53299;SDS011;39187;48.476;8.310;2023-04-03T08:50:14;3.60;;;3.30;;
53299;SDS011;39187;48.476;8.310;2023-04-03T08:52:44;3.13;;;2.97;;
53299;SDS011;39187;48.476;8.310;2023-04-03T08:57:48;3.47;;;3.37;;
53299;SDS011;39187;48.476;8.310;2023-04-03T09:00:24;4.67;;;3.60;;
53299;SDS011;39187;48.476;8.310;2023-04-03T09:02:53;5.43;;;3.50;;
53299;SDS011;39187;48.476;8.310;2023-04-03T09:07:55;2.83;;;2.73;;
53299;SDS011;39187;48.476;8.310;2023-04-03T09:10:29;4.00;;;3.10;;
53299;SDS011;39187;48.476;8.310;2023-04-03T09:13:11;3.63;;;3.33;;
53299;SDS011;39187;48.476;8.310;2023-04-03T09:15:47;3.67;;;3.53;;
53299;SDS011;39187;48.476;8.310;2023-04-03T09:26:12;2.80;;;2.70;;
53299;SDS011;39187;48.476;8.310;2023-04-03T09:28:42;3.10;;;3.00;;
53299;SDS011;39187;48.476;8.310;2023-04-03T09:31:18;2.47;;;2.37;;
53299;SDS011;39187;48.476;8.310;2023-04-03T09:33:50;3.23;;;3.03;;
53299;SDS011;39187;48.476;8.310;2023-04-03T09:39:05;2.20;;;2.10;;
53299;SDS011;39187;48.476;8.310;2023-04-03T09:41:34;2.03;;;1.93;;
53299;SDS011;39187;48.476;8.310;2023-04-03T09:44:00;2.30;;;2.20;;
53299;SDS011;39187;48.476;8.310;2023-04-03T09:48:56;2.00;;;1.90;;
53299;SDS011;39187;48.476;8.310;2023-04-03T09:51:25;2.70;;;2.50;;
53299;SDS011;39187;48.476;8.310;2023-04-03T09:53:54;2.00;;;1.90;;
53299;SDS011;39187;48.476;8.310;2023-04-03T09:56:23;2.57;;;2.37;;
53299;SDS011;39187;48.476;8.310;2023-04-03T10:01:32;2.43;;;2.33;;
53299;SDS011;39187;48.476;8.310;2023-04-03T10:04:10;2.50;;;2.40;;
53299;SDS011;39187;48.476;8.310;2023-04-03T10:06:41;2.70;;;2.60;;
53299;SDS011;39187;48.476;8.310;2023-04-03T10:14:35;2.20;;;2.10;;
53299;SDS011;39187;48.476;8.310;2023-04-03T10:24:36;2.67;;;2.57;;
53299;SDS011;39187;48.476;8.310;2023-04-03T10:27:18;4.20;;;2.47;;
53299;SDS011;39187;48.476;8.310;2023-04-03T10:29:48;2.50;;;2.30;;
53299;SDS011;39187;48.476;8.310;2023-04-03T10:49:10;3.20;;;2.90;;
53299;SDS011;39187;48.476;8.310;2023-04-03T10:52:07;3.10;;;2.90;;
53299;SDS011;39187;48.476;8.310;2023-04-03T10:57:39;1.80;;;1.70;;
53299;SDS011;39187;48.476;8.310;2023-04-03T11:00:07;3.47;;;2.70;;
53299;SDS011;39187;48.476;8.310;2023-04-03T11:03:08;2.87;;;2.77;;
53299;SDS011;39187;48.476;8.310;2023-04-03T11:08:24;3.23;;;3.13;;
53299;SDS011;39187;48.476;8.310;2023-04-03T11:10:57;3.60;;;3.50;;
53299;SDS011;39187;48.476;8.310;2023-04-03T11:13:32;3.20;;;3.10;;
53299;SDS011;39187;48.476;8.310;2023-04-03T11:16:01;3.97;;;3.77;;
53299;SDS011;39187;48.476;8.310;2023-04-03T11:18:32;2.90;;;2.70;;
53299;SDS011;39187;48.476;8.310;2023-04-03T11:21:07;3.10;;;2.90;;
53299;SDS011;39187;48.476;8.310;2023-04-03T11:23:47;3.33;;;3.13;;
53299;SDS011;39187;48.476;8.310;2023-04-03T11:26:16;3.67;;;3.37;;
53299;SDS011;39187;48.476;8.310;2023-04-03T11:28:45;3.20;;;3.00;;
53299;SDS011;39187;48.476;8.310;2023-04-03T11:39:57;4.03;;;3.70;;
53299;SDS011;39187;48.476;8.310;2023-04-03T11:42:47;3.60;;;3.40;;
53299;SDS011;39187;48.476;8.310;2023-04-03T11:48:41;3.83;;;3.63;;
53299;SDS011;39187;48.476;8.310;2023-04-03T11:50:53;4.07;;;3.80;;
53299;SDS011;39187;48.476;8.310;2023-04-03T11:53:26;3.57;;;3.37;;
53299;SDS011;39187;48.476;8.310;2023-04-03T11:58:29;6.20;;;3.40;;
53299;SDS011;39187;48.476;8.310;2023-04-03T12:00:57;4.30;;;4.10;;
53299;SDS011;39187;48.476;8.310;2023-04-03T12:13:35;3.00;;;2.80;;
53299;SDS011;39187;48.476;8.310;2023-04-03T12:16:02;3.07;;;2.97;;
53299;SDS011;39187;48.476;8.310;2023-04-03T12:21:14;3.53;;;3.43;;
53299;SDS011;39187;48.476;8.310;2023-04-03T12:24:00;4.10;;;3.80;;
53299;SDS011;39187;48.476;8.310;2023-04-03T12:48:33;2.97;;;2.87;;
53299;SDS011;39187;48.476;8.310;2023-04-03T12:51:04;3.13;;;2.90;;
53299;SDS011;39187;48.476;8.310;2023-04-03T12:53:32;4.60;;;3.20;;
53299;SDS011;39187;48.476;8.310;2023-04-03T12:56:19;3.00;;;2.80;;
53299;SDS011;39187;48.476;8.310;2023-04-03T12:58:46;6.90;;;3.43;;
53299;SDS011;39187;48.476;8.310;2023-04-03T13:01:13;3.90;;;3.70;;
53299;SDS011;39187;48.476;8.310;2023-04-03T13:03:45;3.67;;;3.37;;
53299;SDS011;39187;48.476;8.310;2023-04-03T13:06:18;4.40;;;3.07;;
53299;SDS011;39187;48.476;8.310;2023-04-03T13:08:54;3.30;;;3.00;;
53299;SDS011;39187;48.476;8.310;2023-04-03T13:11:25;3.13;;;3.03;;
53299;SDS011;39187;48.476;8.310;2023-04-03T13:13:56;3.77;;;3.47;;
53299;SDS011;39187;48.476;8.310;2023-04-03T13:16:27;3.27;;;3.10;;
53299;SDS011;39187;48.476;8.310;2023-04-03T13:18:53;3.03;;;2.67;;
53299;SDS011;39187;48.476;8.310;2023-04-03T13:21:24;3.10;;;2.90;;
53299;SDS011;39187;48.476;8.310;2023-04-03T13:23:54;2.80;;;2.67;;
53299;SDS011;39187;48.476;8.310;2023-04-03T13:26:22;3.57;;;3.33;;
53299;SDS011;39187;48.476;8.310;2023-04-03T13:28:51;3.77;;;3.37;;
53299;SDS011;39187;48.476;8.310;2023-04-03T13:31:30;3.20;;;3.10;;
53299;SDS011;39187;48.476;8.310;2023-04-03T13:34:04;3.07;;;2.87;;
53299;SDS011;39187;48.476;8.310;2023-04-03T13:36:34;2.77;;;2.67;;
53299;SDS011;39187;48.476;8.310;2023-04-03T13:39:06;8.17;;;3.57;;
53299;SDS011;39187;48.476;8.310;2023-04-03T13:41:36;8.93;;;3.03;;
53299;SDS011;39187;48.476;8.310;2023-04-03T13:46:51;3.97;;;3.07;;
53299;SDS011;39187;48.476;8.310;2023-04-03T13:49:20;3.40;;;3.20;;
53299;SDS011;39187;48.476;8.310;2023-04-03T13:52:29;6.00;;;2.87;;
53299;SDS011;39187;48.476;8.310;2023-04-03T13:55:03;2.90;;;2.80;;
53299;SDS011;39187;48.476;8.310;2023-04-03T13:57:55;9.90;;;4.93;;
53299;SDS011;39187;48.476;8.310;2023-04-03T14:03:00;2.83;;;2.73;;
53299;SDS011;39187;48.476;8.310;2023-04-03T14:05:26;3.97;;;3.03;;
53299;SDS011;39187;48.476;8.310;2023-04-03T14:07:52;2.80;;;2.60;;
53299;SDS011;39187;48.476;8.310;2023-04-03T14:10:19;2.67;;;2.57;;
53299;SDS011;39187;48.476;8.310;2023-04-03T14:12:45;3.10;;;2.90;;
53299;SDS011;39187;48.476;8.310;2023-04-03T14:15:24;4.93;;;2.70;;
53299;SDS011;39187;48.476;8.310;2023-04-03T14:17:53;3.67;;;2.67;;
53299;SDS011;39187;48.476;8.310;2023-04-03T14:20:26;3.20;;;2.50;;
53299;SDS011;39187;48.476;8.310;2023-04-03T14:22:52;6.93;;;3.37;;
53299;SDS011;39187;48.476;8.310;2023-04-03T14:25:19;2.80;;;2.70;;
53299;SDS011;39187;48.476;8.310;2023-04-03T14:27:48;3.00;;;2.83;;
53299;SDS011;39187;48.476;8.310;2023-04-03T14:30:17;3.37;;;2.33;;
53299;SDS011;39187;48.476;8.310;2023-04-03T14:33:02;2.70;;;2.50;;
53299;SDS011;39187;48.476;8.310;2023-04-03T14:35:28;2.43;;;2.27;;
53299;SDS011;39187;48.476;8.310;2023-04-03T14:37:54;2.83;;;2.63;;
53299;SDS011;39187;48.476;8.310;2023-04-03T14:40:23;3.30;;;2.47;;
53299;SDS011;39187;48.476;8.310;2023-04-03T14:42:51;2.87;;;2.60;;
53299;SDS011;39187;48.476;8.310;2023-04-03T14:45:20;2.30;;;2.20;;
53299;SDS011;39187;48.476;8.310;2023-04-03T14:47:51;2.70;;;2.60;;
53299;SDS011;39187;48.476;8.310;2023-04-03T14:50:19;2.80;;;2.70;;
53299;SDS011;39187;48.476;8.310;2023-04-03T14:52:47;2.80;;;2.60;;
53299;SDS011;39187;48.476;8.310;2023-04-03T14:55:15;3.50;;;2.27;;
53299;SDS011;39187;48.476;8.310;2023-04-03T14:57:42;2.57;;;2.47;;
53299;SDS011;39187;48.476;8.310;2023-04-03T15:00:11;3.13;;;2.90;;
53299;SDS011;39187;48.476;8.310;2023-04-03T15:02:39;3.00;;;2.70;;
53299;SDS011;39187;48.476;8.310;2023-04-03T15:05:06;4.60;;;2.77;;
53299;SDS011;39187;48.476;8.310;2023-04-03T15:07:40;2.33;;;2.23;;
53299;SDS011;39187;48.476;8.310;2023-04-03T15:12:58;6.83;;;2.10;;
53299;SDS011;39187;48.476;8.310;2023-04-03T15:15:23;3.67;;;2.40;;
53299;SDS011;39187;48.476;8.310;2023-04-03T15:17:54;10.37;;;5.60;;
53299;SDS011;39187;48.476;8.310;2023-04-03T15:20:23;3.17;;;2.97;;
53299;SDS011;39187;48.476;8.310;2023-04-03T15:22:50;2.97;;;2.87;;
53299;SDS011;39187;48.476;8.310;2023-04-03T15:25:16;4.50;;;2.60;;
53299;SDS011;39187;48.476;8.310;2023-04-03T15:27:41;4.57;;;2.50;;
53299;SDS011;39187;48.476;8.310;2023-04-03T15:30:08;2.50;;;2.30;;
53299;SDS011;39187;48.476;8.310;2023-04-03T15:32:39;2.60;;;2.40;;
53299;SDS011;39187;48.476;8.310;2023-04-03T15:35:05;5.03;;;3.73;;
53299;SDS011;39187;48.476;8.310;2023-04-03T15:37:31;6.70;;;2.10;;
53299;SDS011;39187;48.476;8.310;2023-04-03T15:39:57;2.63;;;2.53;;
53299;SDS011;39187;48.476;8.310;2023-04-03T15:42:22;2.73;;;1.83;;
53299;SDS011;39187;48.476;8.310;2023-04-03T15:44:48;2.20;;;2.10;;
53299;SDS011;39187;48.476;8.310;2023-04-03T15:47:13;2.20;;;2.10;;
53299;SDS011;39187;48.476;8.310;2023-04-03T15:49:39;2.80;;;2.60;;
53299;SDS011;39187;48.476;8.310;2023-04-03T15:52:05;3.27;;;3.17;;
53299;SDS011;39187;48.476;8.310;2023-04-03T15:54:30;3.83;;;3.10;;
53299;SDS011;39187;48.476;8.310;2023-04-03T15:56:56;4.00;;;3.00;;
53299;SDS011;39187;48.476;8.310;2023-04-03T15:59:22;4.50;;;2.87;;
53299;SDS011;39187;48.476;8.310;2023-04-03T16:01:48;2.73;;;2.63;;
53299;SDS011;39187;48.476;8.310;2023-04-03T16:04:15;3.33;;;2.60;;
53299;SDS011;39187;48.476;8.310;2023-04-03T16:06:41;2.83;;;2.70;;
53299;SDS011;39187;48.476;8.310;2023-04-03T16:09:07;2.63;;;2.53;;
53299;SDS011;39187;48.476;8.310;2023-04-03T16:11:33;2.63;;;2.53;;
53299;SDS011;39187;48.476;8.310;2023-04-03T16:14:00;4.23;;;2.30;;
53299;SDS011;39187;48.476;8.310;2023-04-03T16:16:26;2.50;;;2.40;;
53299;SDS011;39187;48.476;8.310;2023-04-03T16:18:53;3.07;;;2.77;;
53299;SDS011;39187;48.476;8.310;2023-04-03T16:21:20;2.43;;;2.30;;
53299;SDS011;39187;48.476;8.310;2023-04-03T16:23:45;2.83;;;2.20;;
53299;SDS011;39187;48.476;8.310;2023-04-03T16:26:11;3.53;;;2.70;;
53299;SDS011;39187;48.476;8.310;2023-04-03T16:28:37;3.90;;;2.70;;
53299;SDS011;39187;48.476;8.310;2023-04-03T16:31:03;2.50;;;2.30;;
53299;SDS011;39187;48.476;8.310;2023-04-03T16:33:30;2.60;;;2.50;;
53299;SDS011;39187;48.476;8.310;2023-04-03T16:35:55;2.67;;;2.57;;
53299;SDS011;39187;48.476;8.310;2023-04-03T16:38:21;3.13;;;2.93;;
53299;SDS011;39187;48.476;8.310;2023-04-03T16:40:49;2.70;;;2.50;;
53299;SDS011;39187;48.476;8.310;2023-04-03T16:43:15;2.07;;;1.97;;
53299;SDS011;39187;48.476;8.310;2023-04-03T16:45:41;2.90;;;2.80;;
53299;SDS011;39187;48.476;8.310;2023-04-03T16:48:07;3.00;;;2.70;;
53299;SDS011;39187;48.476;8.310;2023-04-03T16:50:33;3.93;;;2.40;;
53299;SDS011;39187;48.476;8.310;2023-04-03T16:52:59;3.87;;;2.67;;